sensor_id;sensor_type;location;lat;lon;timestamp;pressure;altitude;pressure_sealevel;temperature;humidity
13080;BME280;6606;49.154;9.280;2023-02-20T00:01:20;100752.97;;;9.24;100.00
13080;BME280;6606;49.154;9.280;2023-02-20T00:04:02;100757.44;;;9.20;100.00
13080;BME280;6606;49.154;9.280;2023-02-20T00:06:44;100761.69;;;9.26;100.00
13080;BME280;6606;49.154;9.280;2023-02-20T00:09:26;100761.66;;;9.28;100.00
13080;BME280;6606;49.154;9.280;2023-02-20T00:12:09;100756.25;;;9.32;100.00
13080;BME280;6606;49.154;9.280;2023-02-20T00:14:51;100757.22;;;9.30;100.00
13080;BME280;6606;49.154;9.280;2023-02-20T00:17:33;100773.28;;;9.22;100.00
13080;BME280;6606;49.154;9.280;2023-02-20T00:20:17;100779.81;;;9.09;100.00
13080;BME280;6606;49.154;9.280;2023-02-20T00:22:59;100778.81;;;9.13;100.00
13080;BME280;6606;49.154;9.280;2023-02-20T00:25:41;100776.09;;;9.16;100.00
13080;BME280;6606;49.154;9.280;2023-02-20T00:28:24;100783.75;;;9.27;100.00
13080;BME280;6606;49.154;9.280;2023-02-20T00:31:11;100782.91;;;9.24;100.00
13080;BME280;6606;49.154;9.280;2023-02-20T00:33:55;100779.41;;;9.24;100.00
13080;BME280;6606;49.154;9.280;2023-02-20T00:36:39;100776.50;;;9.33;100.00
13080;BME280;6606;49.154;9.280;2023-02-20T00:39:21;100780.06;;;9.32;100.00
13080;BME280;6606;49.154;9.280;2023-02-20T00:42:02;100778.47;;;9.27;100.00
13080;BME280;6606;49.154;9.280;2023-02-20T00:44:46;100774.97;;;9.24;100.00
13080;BME280;6606;49.154;9.280;2023-02-20T00:47:27;100779.53;;;9.19;100.00
13080;BME280;6606;49.154;9.280;2023-02-20T00:50:12;100781.50;;;9.11;100.00
13080;BME280;6606;49.154;9.280;2023-02-20T00:52:54;100766.00;;;8.97;100.00
13080;BME280;6606;49.154;9.280;2023-02-20T00:55:35;100766.94;;;8.95;100.00
13080;BME280;6606;49.154;9.280;2023-02-20T00:58:17;100763.47;;;8.93;100.00
13080;BME280;6606;49.154;9.280;2023-02-20T01:01:00;100761.88;;;8.86;100.00
13080;BME280;6606;49.154;9.280;2023-02-20T01:03:42;100761.41;;;8.70;100.00
13080;BME280;6606;49.154;9.280;2023-02-20T01:06:24;100760.91;;;8.54;100.00
13080;BME280;6606;49.154;9.280;2023-02-20T01:09:05;100755.88;;;8.45;100.00
13080;BME280;6606;49.154;9.280;2023-02-20T01:11:47;100760.38;;;8.38;100.00
13080;BME280;6606;49.154;9.280;2023-02-20T01:14:29;100764.97;;;8.31;100.00
13080;BME280;6606;49.154;9.280;2023-02-20T01:17:16;100758.84;;;8.29;100.00
13080;BME280;6606;49.154;9.280;2023-02-20T01:19:57;100762.41;;;8.27;100.00
13080;BME280;6606;49.154;9.280;2023-02-20T01:22:39;100768.56;;;8.27;100.00
13080;BME280;6606;49.154;9.280;2023-02-20T01:25:24;100769.50;;;8.25;100.00
13080;BME280;6606;49.154;9.280;2023-02-20T01:28:05;100765.84;;;8.30;100.00
13080;BME280;6606;49.154;9.280;2023-02-20T01:30:49;100768.63;;;8.24;100.00
13080;BME280;6606;49.154;9.280;2023-02-20T01:33:32;100765.06;;;8.25;100.00
13080;BME280;6606;49.154;9.280;2023-02-20T01:36:14;100770.59;;;8.14;100.00
13080;BME280;6606;49.154;9.280;2023-02-20T01:38:56;100768.78;;;8.18;100.00
13080;BME280;6606;49.154;9.280;2023-02-20T01:41:37;100770.72;;;8.10;100.00
13080;BME280;6606;49.154;9.280;2023-02-20T01:44:21;100770.78;;;8.07;100.00
13080;BME280;6606;49.154;9.280;2023-02-20T01:47:06;100764.94;;;7.94;100.00
13080;BME280;6606;49.154;9.280;2023-02-20T01:49:51;100757.09;;;7.89;100.00
13080;BME280;6606;49.154;9.280;2023-02-20T01:52:36;100753.81;;;7.78;100.00
13080;BME280;6606;49.154;9.280;2023-02-20T01:55:21;100748.66;;;7.72;100.00
13080;BME280;6606;49.154;9.280;2023-02-20T01:58:08;100745.25;;;7.67;100.00
13080;BME280;6606;49.154;9.280;2023-02-20T02:00:52;100748.78;;;7.66;100.00
13080;BME280;6606;49.154;9.280;2023-02-20T02:03:36;100743.75;;;7.54;100.00
13080;BME280;6606;49.154;9.280;2023-02-20T02:06:21;100740.31;;;7.52;100.00
13080;BME280;6606;49.154;9.280;2023-02-20T02:09:10;100735.13;;;7.47;100.00
13080;BME280;6606;49.154;9.280;2023-02-20T02:11:54;100735.28;;;7.39;100.00
13080;BME280;6606;49.154;9.280;2023-02-20T02:14:36;100735.34;;;7.36;100.00
13080;BME280;6606;49.154;9.280;2023-02-20T02:24:23;100747.63;;;7.37;100.00
13080;BME280;6606;49.154;9.280;2023-02-20T02:27:34;100750.22;;;7.39;100.00
13080;BME280;6606;49.154;9.280;2023-02-20T02:30:45;100738.69;;;7.44;100.00
13080;BME280;6606;49.154;9.280;2023-02-20T02:34:00;100751.81;;;7.47;100.00
13080;BME280;6606;49.154;9.280;2023-02-20T02:37:00;100739.47;;;7.48;100.00
13080;BME280;6606;49.154;9.280;2023-02-20T02:39:49;100737.81;;;7.44;100.00
13080;BME280;6606;49.154;9.280;2023-02-20T02:42:39;100739.56;;;7.45;100.00
13080;BME280;6606;49.154;9.280;2023-02-20T02:45:29;100726.28;;;7.49;100.00
13080;BME280;6606;49.154;9.280;2023-02-20T02:48:18;100734.16;;;7.51;100.00
13080;BME280;6606;49.154;9.280;2023-02-20T02:51:06;100734.19;;;7.49;100.00
13080;BME280;6606;49.154;9.280;2023-02-20T02:54:08;100715.78;;;7.46;100.00
13080;BME280;6606;49.154;9.280;2023-02-20T02:56:51;100715.72;;;7.49;100.00
13080;BME280;6606;49.154;9.280;2023-02-20T02:59:33;100713.94;;;7.52;100.00
13080;BME280;6606;49.154;9.280;2023-02-20T03:02:17;100720.38;;;7.38;100.00
13080;BME280;6606;49.154;9.280;2023-02-20T03:05:00;100731.72;;;7.40;100.00
13080;BME280;6606;49.154;9.280;2023-02-20T03:07:46;100727.28;;;7.44;100.00
13080;BME280;6606;49.154;9.280;2023-02-20T03:10:33;100732.56;;;7.44;100.00
13080;BME280;6606;49.154;9.280;2023-02-20T03:13:18;100737.94;;;7.38;100.00
13080;BME280;6606;49.154;9.280;2023-02-20T03:16:00;100738.84;;;7.35;100.00
13080;BME280;6606;49.154;9.280;2023-02-20T03:18:42;100727.38;;;7.39;100.00
13080;BME280;6606;49.154;9.280;2023-02-20T03:21:26;100723.09;;;7.32;100.00
13080;BME280;6606;49.154;9.280;2023-02-20T03:24:11;100728.38;;;7.32;100.00
13080;BME280;6606;49.154;9.280;2023-02-20T03:26:57;100725.81;;;7.27;100.00
13080;BME280;6606;49.154;9.280;2023-02-20T03:29:40;100736.56;;;7.18;100.00
13080;BME280;6606;49.154;9.280;2023-02-20T03:32:24;100727.94;;;7.10;100.00
13080;BME280;6606;49.154;9.280;2023-02-20T03:35:26;100735.63;;;7.22;100.00
13080;BME280;6606;49.154;9.280;2023-02-20T03:38:27;100735.63;;;7.21;100.00
13080;BME280;6606;49.154;9.280;2023-02-20T03:41:27;100740.91;;;7.21;100.00
13080;BME280;6606;49.154;9.280;2023-02-20T03:44:29;100732.22;;;7.16;100.00
13080;BME280;6606;49.154;9.280;2023-02-20T03:47:14;100737.34;;;7.23;100.00
13080;BME280;6606;49.154;9.280;2023-02-20T03:50:00;100732.03;;;7.25;100.00
13080;BME280;6606;49.154;9.280;2023-02-20T03:52:45;100735.63;;;7.21;100.00
13080;BME280;6606;49.154;9.280;2023-02-20T03:55:28;100730.50;;;7.13;100.00
13080;BME280;6606;49.154;9.280;2023-02-20T03:58:14;100733.16;;;7.13;100.00
13080;BME280;6606;49.154;9.280;2023-02-20T04:01:01;100730.59;;;7.09;100.00
13080;BME280;6606;49.154;9.280;2023-02-20T04:03:45;100739.22;;;7.17;100.00
13080;BME280;6606;49.154;9.280;2023-02-20T04:06:31;100734.88;;;7.14;100.00
13080;BME280;6606;49.154;9.280;2023-02-20T04:09:18;100721.88;;;7.05;100.00
13080;BME280;6606;49.154;9.280;2023-02-20T04:12:07;100723.66;;;7.04;100.00
13080;BME280;6606;49.154;9.280;2023-02-20T04:14:55;100729.78;;;7.07;100.00
13080;BME280;6606;49.154;9.280;2023-02-20T04:17:48;100718.25;;;7.11;100.00
13080;BME280;6606;49.154;9.280;2023-02-20T04:20:30;100714.91;;;7.02;100.00
13080;BME280;6606;49.154;9.280;2023-02-20T04:23:26;100717.53;;;7.02;100.00
13080;BME280;6606;49.154;9.280;2023-02-20T04:26:15;100721.88;;;7.03;100.00
13080;BME280;6606;49.154;9.280;2023-02-20T04:28:59;100720.28;;;6.96;100.00
13080;BME280;6606;49.154;9.280;2023-02-20T04:31:42;100736.84;;;7.03;100.00
13080;BME280;6606;49.154;9.280;2023-02-20T04:34:25;100731.56;;;7.04;100.00
13080;BME280;6606;49.154;9.280;2023-02-20T04:37:09;100735.78;;;7.13;100.00
13080;BME280;6606;49.154;9.280;2023-02-20T04:39:52;100734.84;;;7.17;100.00
13080;BME280;6606;49.154;9.280;2023-02-20T04:42:34;100733.13;;;7.15;100.00
13080;BME280;6606;49.154;9.280;2023-02-20T04:45:16;100727.13;;;7.07;100.00
13080;BME280;6606;49.154;9.280;2023-02-20T04:47:58;100732.28;;;7.11;100.00
13080;BME280;6606;49.154;9.280;2023-02-20T04:50:41;100726.16;;;7.12;100.00
13080;BME280;6606;49.154;9.280;2023-02-20T04:53:24;100719.13;;;7.11;100.00
13080;BME280;6606;49.154;9.280;2023-02-20T04:56:06;100741.84;;;7.17;100.00
13080;BME280;6606;49.154;9.280;2023-02-20T04:58:52;100732.34;;;7.10;100.00
13080;BME280;6606;49.154;9.280;2023-02-20T05:01:36;100727.13;;;7.07;100.00
13080;BME280;6606;49.154;9.280;2023-02-20T05:04:18;100723.41;;;7.17;100.00
13080;BME280;6606;49.154;9.280;2023-02-20T05:07:02;100728.50;;;7.26;100.00
13080;BME280;6606;49.154;9.280;2023-02-20T05:09:44;100728.50;;;7.26;100.00
13080;BME280;6606;49.154;9.280;2023-02-20T05:12:25;100731.22;;;7.23;100.00
13080;BME280;6606;49.154;9.280;2023-02-20T05:15:07;100731.22;;;7.21;100.00
13080;BME280;6606;49.154;9.280;2023-02-20T05:17:49;100730.22;;;7.27;100.00
13080;BME280;6606;49.154;9.280;2023-02-20T05:20:31;100731.16;;;7.26;100.00
13080;BME280;6606;49.154;9.280;2023-02-20T05:23:31;100733.72;;;7.29;100.00
13080;BME280;6606;49.154;9.280;2023-02-20T05:26:17;100746.78;;;7.35;100.00
13080;BME280;6606;49.154;9.280;2023-02-20T05:28:59;100737.97;;;7.36;100.00
13080;BME280;6606;49.154;9.280;2023-02-20T05:31:41;100741.31;;;7.44;100.00
13080;BME280;6606;49.154;9.280;2023-02-20T05:34:23;100742.03;;;7.53;100.00
13080;BME280;6606;49.154;9.280;2023-02-20T05:37:05;100736.94;;;7.43;100.00
13080;BME280;6606;49.154;9.280;2023-02-20T05:39:51;100734.34;;;7.40;100.00
13080;BME280;6606;49.154;9.280;2023-02-20T05:42:33;100736.06;;;7.43;100.00
13080;BME280;6606;49.154;9.280;2023-02-20T05:45:14;100734.28;;;7.45;100.00
13080;BME280;6606;49.154;9.280;2023-02-20T05:47:56;100733.47;;;7.41;100.00
13080;BME280;6606;49.154;9.280;2023-02-20T05:50:38;100730.09;;;7.35;100.00
13080;BME280;6606;49.154;9.280;2023-02-20T05:53:20;100729.31;;;7.30;100.00
13080;BME280;6606;49.154;9.280;2023-02-20T05:56:04;100731.00;;;7.32;100.00
13080;BME280;6606;49.154;9.280;2023-02-20T05:58:46;100731.94;;;7.31;100.00
13080;BME280;6606;49.154;9.280;2023-02-20T06:01:30;100718.81;;;7.26;100.00
13080;BME280;6606;49.154;9.280;2023-02-20T06:04:12;100731.94;;;7.31;100.00
13080;BME280;6606;49.154;9.280;2023-02-20T06:06:54;100733.59;;;7.35;100.00
13080;BME280;6606;49.154;9.280;2023-02-20T06:09:36;100733.72;;;7.29;100.00
13080;BME280;6606;49.154;9.280;2023-02-20T06:12:19;100729.34;;;7.28;100.00
13080;BME280;6606;49.154;9.280;2023-02-20T06:15:00;100733.78;;;7.26;100.00
13080;BME280;6606;49.154;9.280;2023-02-20T06:17:42;100727.53;;;7.30;100.00
13080;BME280;6606;49.154;9.280;2023-02-20T06:20:24;100737.44;;;7.19;100.00
13080;BME280;6606;49.154;9.280;2023-02-20T06:23:06;100739.22;;;7.17;100.00
13080;BME280;6606;49.154;9.280;2023-02-20T06:25:47;100743.66;;;7.15;100.00
13080;BME280;6606;49.154;9.280;2023-02-20T06:28:31;100739.22;;;7.17;100.00
13080;BME280;6606;49.154;9.280;2023-02-20T06:31:13;100733.06;;;7.18;100.00
13080;BME280;6606;49.154;9.280;2023-02-20T06:33:54;100737.28;;;7.26;100.00
13080;BME280;6606;49.154;9.280;2023-02-20T06:36:38;100741.78;;;7.21;100.00
13080;BME280;6606;49.154;9.280;2023-02-20T06:39:20;100740.13;;;7.16;100.00
13080;BME280;6606;49.154;9.280;2023-02-20T06:42:02;100734.78;;;7.19;100.00
13080;BME280;6606;49.154;9.280;2023-02-20T06:44:45;100736.38;;;7.27;100.00
13080;BME280;6606;49.154;9.280;2023-02-20T06:47:26;100740.81;;;7.25;100.00
13080;BME280;6606;49.154;9.280;2023-02-20T06:50:08;100746.84;;;7.32;100.00
13080;BME280;6606;49.154;9.280;2023-02-20T06:52:50;100746.06;;;7.27;100.00
13080;BME280;6606;49.154;9.280;2023-02-20T06:55:32;100743.47;;;7.24;100.00
13080;BME280;6606;49.154;9.280;2023-02-20T06:58:13;100758.34;;;7.28;100.00
13080;BME280;6606;49.154;9.280;2023-02-20T07:00:57;100763.50;;;7.34;100.00
13080;BME280;6606;49.154;9.280;2023-02-20T07:03:38;100764.28;;;7.39;100.00
13080;BME280;6606;49.154;9.280;2023-02-20T07:06:24;100761.66;;;7.39;100.00
13080;BME280;6606;49.154;9.280;2023-02-20T07:09:06;100765.78;;;7.51;100.00
13080;BME280;6606;49.154;9.280;2023-02-20T07:11:48;100764.75;;;7.60;100.00
13080;BME280;6606;49.154;9.280;2023-02-20T07:14:30;100756.06;;;7.55;100.00
13080;BME280;6606;49.154;9.280;2023-02-20T07:17:13;100758.50;;;7.64;100.00
13080;BME280;6606;49.154;9.280;2023-02-20T07:19:55;100763.75;;;7.65;100.00
13080;BME280;6606;49.154;9.280;2023-02-20T07:22:37;100762.56;;;7.80;100.00
13080;BME280;6606;49.154;9.280;2023-02-20T07:25:18;100762.22;;;7.96;100.00
13080;BME280;6606;49.154;9.280;2023-02-20T07:28:00;100759.56;;;7.97;100.00
13080;BME280;6606;49.154;9.280;2023-02-20T07:30:42;100761.09;;;8.07;100.00
13080;BME280;6606;49.154;9.280;2023-02-20T07:33:25;100750.72;;;8.00;100.00
13080;BME280;6606;49.154;9.280;2023-02-20T07:36:10;100759.94;;;8.19;100.00
13080;BME280;6606;49.154;9.280;2023-02-20T07:38:53;100748.78;;;8.47;100.00
13080;BME280;6606;49.154;9.280;2023-02-20T07:41:34;100751.50;;;9.45;100.00
13080;BME280;6606;49.154;9.280;2023-02-20T07:44:20;100738.22;;;10.87;100.00
13080;BME280;6606;49.154;9.280;2023-02-20T07:47:02;100752.75;;;10.21;100.00
13080;BME280;6606;49.154;9.280;2023-02-20T07:49:45;100743.47;;;9.78;100.00
13080;BME280;6606;49.154;9.280;2023-02-20T07:52:27;100753.31;;;9.43;100.00
13080;BME280;6606;49.154;9.280;2023-02-20T07:55:11;100753.13;;;9.49;100.00
13080;BME280;6606;49.154;9.280;2023-02-20T07:57:53;100753.03;;;9.52;100.00
13080;BME280;6606;49.154;9.280;2023-02-20T08:00:37;100753.50;;;9.37;100.00
13080;BME280;6606;49.154;9.280;2023-02-20T08:03:19;100754.06;;;9.46;100.00
13080;BME280;6606;49.154;9.280;2023-02-20T08:06:04;100753.41;;;9.40;100.00
13080;BME280;6606;49.154;9.280;2023-02-20T08:08:48;100744.16;;;9.23;100.00
13080;BME280;6606;49.154;9.280;2023-02-20T08:11:32;100744.28;;;9.19;100.00
13080;BME280;6606;49.154;9.280;2023-02-20T08:14:14;100744.94;;;9.27;100.00
13080;BME280;6606;49.154;9.280;2023-02-20T08:16:56;100749.56;;;9.19;100.00
13080;BME280;6606;49.154;9.280;2023-02-20T08:19:38;100737.03;;;9.25;100.00
13080;BME280;6606;49.154;9.280;2023-02-20T08:22:24;100734.47;;;9.22;100.00
13080;BME280;6606;49.154;9.280;2023-02-20T08:25:06;100744.28;;;9.50;100.00
13080;BME280;6606;49.154;9.280;2023-02-20T08:27:48;100750.53;;;9.48;100.00
13080;BME280;6606;49.154;9.280;2023-02-20T08:30:31;100740.91;;;9.45;100.00
13080;BME280;6606;49.154;9.280;2023-02-20T08:33:13;100731.38;;;9.39;100.00
13080;BME280;6606;49.154;9.280;2023-02-20T08:35:54;100730.38;;;9.73;100.00
13080;BME280;6606;49.154;9.280;2023-02-20T08:38:38;100728.69;;;10.00;100.00
13080;BME280;6606;49.154;9.280;2023-02-20T08:41:20;100733.59;;;10.12;100.00
13080;BME280;6606;49.154;9.280;2023-02-20T08:44:02;100727.53;;;10.37;100.00
13080;BME280;6606;49.154;9.280;2023-02-20T08:46:47;100723.78;;;10.44;100.00
13080;BME280;6606;49.154;9.280;2023-02-20T08:49:30;100723.16;;;10.63;100.00
13080;BME280;6606;49.154;9.280;2023-02-20T08:52:11;100722.97;;;10.94;100.00
13080;BME280;6606;49.154;9.280;2023-02-20T08:54:55;100719.53;;;11.17;100.00
13080;BME280;6606;49.154;9.280;2023-02-20T08:57:36;100718.06;;;11.57;100.00
13080;BME280;6606;49.154;9.280;2023-02-20T09:00:19;100720.88;;;11.52;100.00
13080;BME280;6606;49.154;9.280;2023-02-20T09:03:01;100712.22;;;11.94;100.00
13080;BME280;6606;49.154;9.280;2023-02-20T09:05:46;100719.53;;;12.11;100.00
13080;BME280;6606;49.154;9.280;2023-02-20T09:08:28;100713.72;;;12.23;100.00
13080;BME280;6606;49.154;9.280;2023-02-20T09:11:11;100707.28;;;12.29;100.00
13080;BME280;6606;49.154;9.280;2023-02-20T09:13:53;100717.91;;;12.51;100.00
13080;BME280;6606;49.154;9.280;2023-02-20T09:16:35;100713.31;;;12.76;100.00
13080;BME280;6606;49.154;9.280;2023-02-20T09:19:21;100710.19;;;12.45;100.00
13080;BME280;6606;49.154;9.280;2023-02-20T09:22:06;100710.66;;;12.12;100.00
13080;BME280;6606;49.154;9.280;2023-02-20T09:24:48;100710.38;;;12.40;100.00
13080;BME280;6606;49.154;9.280;2023-02-20T09:27:31;100695.75;;;12.08;100.00
13080;BME280;6606;49.154;9.280;2023-02-20T09:30:15;100698.69;;;12.44;100.00
13080;BME280;6606;49.154;9.280;2023-02-20T09:32:58;100697.03;;;11.98;100.00
13080;BME280;6606;49.154;9.280;2023-02-20T09:35:40;100693.59;;;12.18;100.00
13080;BME280;6606;49.154;9.280;2023-02-20T09:38:22;100699.75;;;12.18;100.00
13080;BME280;6606;49.154;9.280;2023-02-20T09:41:17;100685.22;;;12.69;100.00
13080;BME280;6606;49.154;9.280;2023-02-20T09:44:06;100696.41;;;12.35;100.00
13080;BME280;6606;49.154;9.280;2023-02-20T09:46:52;100689.47;;;12.09;100.00
13080;BME280;6606;49.154;9.280;2023-02-20T09:49:36;100676.09;;;12.12;100.00
13080;BME280;6606;49.154;9.280;2023-02-20T09:52:19;100685.47;;;12.21;100.00
13080;BME280;6606;49.154;9.280;2023-02-20T09:55:05;100675.03;;;12.16;100.00
13080;BME280;6606;49.154;9.280;2023-02-20T09:57:51;100684.78;;;12.38;100.00
13080;BME280;6606;49.154;9.280;2023-02-20T10:00:36;100679.69;;;12.53;100.00
13080;BME280;6606;49.154;9.280;2023-02-20T10:03:25;100666.09;;;12.82;100.00
13080;BME280;6606;49.154;9.280;2023-02-20T10:06:16;100673.91;;;12.85;100.00
13080;BME280;6606;49.154;9.280;2023-02-20T10:08:59;100668.06;;;12.76;100.00
13080;BME280;6606;49.154;9.280;2023-02-20T10:11:52;100667.66;;;12.86;100.00
13080;BME280;6606;49.154;9.280;2023-02-20T10:14:52;100668.84;;;12.99;100.00
13080;BME280;6606;49.154;9.280;2023-02-20T10:17:46;100667.81;;;13.22;100.00
13080;BME280;6606;49.154;9.280;2023-02-20T10:20:41;100667.91;;;13.20;100.00
13080;BME280;6606;49.154;9.280;2023-02-20T10:23:35;100659.53;;;13.30;100.00
13080;BME280;6606;49.154;9.280;2023-02-20T10:26:20;100658.59;;;13.10;100.00
13080;BME280;6606;49.154;9.280;2023-02-20T10:29:21;100664.72;;;13.33;100.00
13080;BME280;6606;49.154;9.280;2023-02-20T10:32:08;100659.03;;;13.20;100.00
13080;BME280;6606;49.154;9.280;2023-02-20T10:34:58;100658.47;;;13.53;100.00
13080;BME280;6606;49.154;9.280;2023-02-20T10:37:46;100657.50;;;13.73;100.00
13080;BME280;6606;49.154;9.280;2023-02-20T10:40:33;100663.84;;;13.51;100.00
13080;BME280;6606;49.154;9.280;2023-02-20T10:43:18;100661.56;;;13.62;100.00
13080;BME280;6606;49.154;9.280;2023-02-20T10:46:06;100658.22;;;13.57;100.00
13080;BME280;6606;49.154;9.280;2023-02-20T10:48:53;100654.66;;;13.39;100.00
13080;BME280;6606;49.154;9.280;2023-02-20T10:51:42;100640.34;;;13.42;100.00
13080;BME280;6606;49.154;9.280;2023-02-20T10:54:30;100630.53;;;13.61;100.00
13080;BME280;6606;49.154;9.280;2023-02-20T10:57:17;100638.09;;;13.52;100.00
13080;BME280;6606;49.154;9.280;2023-02-20T11:00:04;100630.69;;;13.39;100.00
13080;BME280;6606;49.154;9.280;2023-02-20T11:02:51;100639.88;;;13.51;100.00
13080;BME280;6606;49.154;9.280;2023-02-20T11:06:01;100628.03;;;13.58;100.00
13080;BME280;6606;49.154;9.280;2023-02-20T11:08:54;100637.72;;;13.59;100.00
13080;BME280;6606;49.154;9.280;2023-02-20T11:11:43;100610.50;;;13.72;100.00
13080;BME280;6606;49.154;9.280;2023-02-20T11:14:31;100610.28;;;13.57;100.00
13080;BME280;6606;49.154;9.280;2023-02-20T11:17:17;100603.97;;;13.41;100.00
13080;BME280;6606;49.154;9.280;2023-02-20T11:20:01;100604.97;;;13.57;100.00
13080;BME280;6606;49.154;9.280;2023-02-20T11:22:45;100608.72;;;13.53;100.00
13080;BME280;6606;49.154;9.280;2023-02-20T11:25:30;100616.91;;;13.68;100.00
13080;BME280;6606;49.154;9.280;2023-02-20T11:28:17;100604.91;;;13.95;100.00
13080;BME280;6606;49.154;9.280;2023-02-20T11:31:03;100597.00;;;13.94;100.00
13080;BME280;6606;49.154;9.280;2023-02-20T11:33:46;100589.09;;;13.73;100.00
13080;BME280;6606;49.154;9.280;2023-02-20T11:36:35;100587.34;;;13.91;100.00
13080;BME280;6606;49.154;9.280;2023-02-20T11:39:23;100583.59;;;13.95;100.00
13080;BME280;6606;49.154;9.280;2023-02-20T11:42:11;100570.75;;;14.03;100.00
13080;BME280;6606;49.154;9.280;2023-02-20T11:45:12;100567.28;;;14.01;100.00
13080;BME280;6606;49.154;9.280;2023-02-20T11:48:08;100563.22;;;14.12;94.54
13080;BME280;6606;49.154;9.280;2023-02-20T11:50:51;100557.75;;;13.97;94.04
13080;BME280;6606;49.154;9.280;2023-02-20T11:53:33;100544.16;;;13.84;95.44
13080;BME280;6606;49.154;9.280;2023-02-20T11:56:17;100533.34;;;14.05;97.31
13080;BME280;6606;49.154;9.280;2023-02-20T11:59:31;100528.78;;;14.07;93.94
13080;BME280;6606;49.154;9.280;2023-02-20T12:02:27;100519.78;;;14.10;91.23
13080;BME280;6606;49.154;9.280;2023-02-20T12:05:11;100513.16;;;14.34;96.98
13080;BME280;6606;49.154;9.280;2023-02-20T12:07:56;100518.50;;;14.51;89.69
13080;BME280;6606;49.154;9.280;2023-02-20T12:10:40;100524.00;;;14.48;94.72
13080;BME280;6606;49.154;9.280;2023-02-20T12:13:22;100517.25;;;14.41;90.22
13080;BME280;6606;49.154;9.280;2023-02-20T12:16:20;100507.69;;;14.55;91.29
13080;BME280;6606;49.154;9.280;2023-02-20T12:19:10;100515.97;;;14.66;88.97
13080;BME280;6606;49.154;9.280;2023-02-20T12:22:02;100504.09;;;14.56;86.68
13080;BME280;6606;49.154;9.280;2023-02-20T12:24:55;100507.53;;;14.73;82.72
13080;BME280;6606;49.154;9.280;2023-02-20T12:27:49;100492.34;;;14.91;86.19
13080;BME280;6606;49.154;9.280;2023-02-20T12:30:48;100489.19;;;15.01;84.93
13080;BME280;6606;49.154;9.280;2023-02-20T12:34:06;100493.56;;;15.02;81.89
13080;BME280;6606;49.154;9.280;2023-02-20T12:37:48;100482.63;;;14.90;79.91
13080;BME280;6606;49.154;9.280;2023-02-20T12:41:33;100481.59;;;15.09;84.18
13080;BME280;6606;49.154;9.280;2023-02-20T12:44:45;100473.00;;;15.20;78.70
13080;BME280;6606;49.154;9.280;2023-02-20T12:47:55;100466.25;;;15.12;81.38
13080;BME280;6606;49.154;9.280;2023-02-20T12:50:48;100468.06;;;14.96;77.45
13080;BME280;6606;49.154;9.280;2023-02-20T12:53:55;100456.09;;;14.87;78.06
13080;BME280;6606;49.154;9.280;2023-02-20T12:57:04;100447.50;;;15.14;80.50
13080;BME280;6606;49.154;9.280;2023-02-20T12:59:53;100445.75;;;15.13;76.13
13080;BME280;6606;49.154;9.280;2023-02-20T13:02:42;100434.84;;;15.48;76.10
13080;BME280;6606;49.154;9.280;2023-02-20T13:05:31;100429.22;;;15.22;74.91
13080;BME280;6606;49.154;9.280;2023-02-20T13:08:17;100430.09;;;15.07;76.89
13080;BME280;6606;49.154;9.280;2023-02-20T13:11:04;100428.19;;;15.25;75.19
13080;BME280;6606;49.154;9.280;2023-02-20T13:13:59;100419.38;;;15.38;76.68
13080;BME280;6606;49.154;9.280;2023-02-20T13:16:47;100420.78;;;15.14;76.00
13080;BME280;6606;49.154;9.280;2023-02-20T13:19:36;100418.63;;;15.21;73.26
13080;BME280;6606;49.154;9.280;2023-02-20T13:22:20;100416.78;;;15.21;74.50
13080;BME280;6606;49.154;9.280;2023-02-20T13:28:32;100402.00;;;15.15;78.31
13080;BME280;6606;49.154;9.280;2023-02-20T13:31:19;100387.19;;;15.10;76.02
13080;BME280;6606;49.154;9.280;2023-02-20T13:34:25;100386.97;;;15.29;69.88
13080;BME280;6606;49.154;9.280;2023-02-20T13:40:40;100365.63;;;15.59;71.50
13080;BME280;6606;49.154;9.280;2023-02-20T13:43:29;100359.19;;;15.47;72.29
13080;BME280;6606;49.154;9.280;2023-02-20T13:46:16;100359.00;;;15.50;69.39
13080;BME280;6606;49.154;9.280;2023-02-20T13:49:02;100346.66;;;15.33;68.90
13080;BME280;6606;49.154;9.280;2023-02-20T13:51:46;100350.53;;;15.58;71.65
13080;BME280;6606;49.154;9.280;2023-02-20T13:54:28;100359.19;;;15.47;69.01
13080;BME280;6606;49.154;9.280;2023-02-20T13:57:15;100357.75;;;15.11;69.55
13080;BME280;6606;49.154;9.280;2023-02-20T14:00:00;100351.06;;;15.18;70.97
13080;BME280;6606;49.154;9.280;2023-02-20T14:02:47;100358.03;;;15.21;71.01
13080;BME280;6606;49.154;9.280;2023-02-20T14:05:30;100342.47;;;15.13;69.15
13080;BME280;6606;49.154;9.280;2023-02-20T14:08:16;100342.75;;;15.09;68.36
13080;BME280;6606;49.154;9.280;2023-02-20T14:11:08;100335.34;;;15.14;68.98
13080;BME280;6606;49.154;9.280;2023-02-20T14:13:50;100339.75;;;15.29;67.71
13080;BME280;6606;49.154;9.280;2023-02-20T14:16:36;100346.66;;;15.03;73.12
13080;BME280;6606;49.154;9.280;2023-02-20T14:19:21;100341.38;;;15.02;72.90
13080;BME280;6606;49.154;9.280;2023-02-20T14:22:19;100344.13;;;15.00;70.40
13080;BME280;6606;49.154;9.280;2023-02-20T14:25:17;100345.53;;;14.91;70.75
13080;BME280;6606;49.154;9.280;2023-02-20T14:28:05;100335.09;;;15.03;75.75
13080;BME280;6606;49.154;9.280;2023-02-20T14:31:02;100337.63;;;14.90;74.14
13080;BME280;6606;49.154;9.280;2023-02-20T14:33:46;100337.09;;;14.83;76.28
13080;BME280;6606;49.154;9.280;2023-02-20T14:36:57;100329.03;;;14.69;77.04
13080;BME280;6606;49.154;9.280;2023-02-20T14:39:56;100324.53;;;14.85;78.37
13080;BME280;6606;49.154;9.280;2023-02-20T14:42:42;100324.19;;;14.91;78.65
13080;BME280;6606;49.154;9.280;2023-02-20T14:45:25;100318.34;;;14.85;80.23
13080;BME280;6606;49.154;9.280;2023-02-20T14:48:21;100312.28;;;14.97;78.00
13080;BME280;6606;49.154;9.280;2023-02-20T14:51:16;100314.69;;;15.02;79.01
13080;BME280;6606;49.154;9.280;2023-02-20T14:53:59;100313.53;;;14.60;82.31